sensor_id;sensor_type;location;lat;lon;timestamp;pressure;altitude;pressure_sealevel;temperature;humidity
6096;BME280;25081;42.698;23.298;2023-02-13T00:01:48;97031.73;;;-0.95;88.64
6096;BME280;25081;42.698;23.298;2023-02-13T00:04:17;97025.27;;;-0.97;88.60
6096;BME280;25081;42.698;23.298;2023-02-13T00:06:46;97030.14;;;-0.98;88.51
6096;BME280;25081;42.698;23.298;2023-02-13T00:09:14;97031.19;;;-1.00;88.72
6096;BME280;25081;42.698;23.298;2023-02-13T00:11:43;97030.00;;;-1.02;88.71
6096;BME280;25081;42.698;23.298;2023-02-13T00:14:12;97033.12;;;-0.97;88.46
6096;BME280;25081;42.698;23.298;2023-02-13T00:16:41;97034.82;;;-0.83;88.18
6096;BME280;25081;42.698;23.298;2023-02-13T00:19:09;97032.89;;;-0.74;87.56
6096;BME280;25081;42.698;23.298;2023-02-13T00:21:38;96955.28;;;-1.26;87.03
6096;BME280;25081;42.698;23.298;2023-02-13T00:24:07;97036.17;;;-0.77;87.19
6096;BME280;25081;42.698;23.298;2023-02-13T00:26:36;97033.52;;;-0.83;87.17
6096;BME280;25081;42.698;23.298;2023-02-13T00:29:05;97029.63;;;-0.77;87.21
6096;BME280;25081;42.698;23.298;2023-02-13T00:31:33;97034.70;;;-0.69;87.16
6096;BME280;25081;42.698;23.298;2023-02-13T00:34:02;97042.01;;;-0.67;86.91
6096;BME280;25081;42.698;23.298;2023-02-13T00:36:30;97037.32;;;-0.69;86.97
6096;BME280;25081;42.698;23.298;2023-02-13T00:38:59;97041.72;;;-0.69;87.31
6096;BME280;25081;42.698;23.298;2023-02-13T00:41:28;97037.69;;;-0.68;87.24
6096;BME280;25081;42.698;23.298;2023-02-13T00:43:56;97033.20;;;-0.66;87.21
6096;BME280;25081;42.698;23.298;2023-02-13T00:46:25;97040.52;;;-0.71;87.05
6096;BME280;25081;42.698;23.298;2023-02-13T00:48:54;97044.56;;;-0.72;86.81
6096;BME280;25081;42.698;23.298;2023-02-13T00:51:22;97049.66;;;-0.76;86.59
6096;BME280;25081;42.698;23.298;2023-02-13T00:53:51;97035.08;;;-0.80;86.33
6096;BME280;25081;42.698;23.298;2023-02-13T00:56:20;97045.12;;;-0.87;86.09
6096;BME280;25081;42.698;23.298;2023-02-13T00:58:49;97046.13;;;-0.95;86.75
6096;BME280;25081;42.698;23.298;2023-02-13T01:01:18;97050.24;;;-0.98;86.98
6096;BME280;25081;42.698;23.298;2023-02-13T01:03:46;97059.16;;;-0.88;87.03
6096;BME280;25081;42.698;23.298;2023-02-13T01:06:15;97062.53;;;-0.86;86.55
6096;BME280;25081;42.698;23.298;2023-02-13T01:08:44;97058.64;;;-0.80;86.54
6096;BME280;25081;42.698;23.298;2023-02-13T01:11:12;97050.13;;;-0.77;86.24
6096;BME280;25081;42.698;23.298;2023-02-13T01:13:41;97050.89;;;-0.82;86.39
6096;BME280;25081;42.698;23.298;2023-02-13T01:16:10;97053.04;;;-0.81;86.82
6096;BME280;25081;42.698;23.298;2023-02-13T01:18:40;97046.92;;;-0.75;87.08
6096;BME280;25081;42.698;23.298;2023-02-13T01:21:11;97042.92;;;-0.68;86.55
6096;BME280;25081;42.698;23.298;2023-02-13T01:23:40;97045.75;;;-0.58;86.27
6096;BME280;25081;42.698;23.298;2023-02-13T01:26:10;97056.88;;;-0.54;85.70
6096;BME280;25081;42.698;23.298;2023-02-13T01:28:38;97060.80;;;-0.54;85.35
6096;BME280;25081;42.698;23.298;2023-02-13T01:31:07;97054.61;;;-0.53;85.18
6096;BME280;25081;42.698;23.298;2023-02-13T01:33:36;97061.78;;;-0.50;85.39
6096;BME280;25081;42.698;23.298;2023-02-13T01:36:11;97054.01;;;-0.39;85.14
6096;BME280;25081;42.698;23.298;2023-02-13T01:38:38;97061.31;;;-0.37;84.91
6096;BME280;25081;42.698;23.298;2023-02-13T01:41:07;97057.05;;;-0.32;84.54
6096;BME280;25081;42.698;23.298;2023-02-13T01:43:48;97065.64;;;-0.30;84.59
6096;BME280;25081;42.698;23.298;2023-02-13T01:46:16;97063.85;;;-0.30;84.37
6096;BME280;25081;42.698;23.298;2023-02-13T01:48:44;97067.95;;;-0.25;84.48
6096;BME280;25081;42.698;23.298;2023-02-13T01:51:15;97071.91;;;-0.20;84.34
6096;BME280;25081;42.698;23.298;2023-02-13T01:53:44;97068.63;;;-0.16;84.21
6096;BME280;25081;42.698;23.298;2023-02-13T01:56:13;97071.55;;;-0.21;84.15
6096;BME280;25081;42.698;23.298;2023-02-13T01:58:41;97075.84;;;-0.20;84.01
6096;BME280;25081;42.698;23.298;2023-02-13T02:01:09;97079.27;;;-0.25;83.83
6096;BME280;25081;42.698;23.298;2023-02-13T02:03:40;97072.19;;;-0.17;84.25
6096;BME280;25081;42.698;23.298;2023-02-13T02:06:13;97075.12;;;-0.09;83.67
6096;BME280;25081;42.698;23.298;2023-02-13T02:08:37;97071.44;;;-0.19;83.52
6096;BME280;25081;42.698;23.298;2023-02-13T02:11:08;97078.09;;;-0.21;83.85
6096;BME280;25081;42.698;23.298;2023-02-13T02:13:35;97073.39;;;-0.16;83.95
6096;BME280;25081;42.698;23.298;2023-02-13T02:16:04;97066.02;;;-0.11;83.74
6096;BME280;25081;42.698;23.298;2023-02-13T02:18:33;97062.20;;;-0.12;83.75
6096;BME280;25081;42.698;23.298;2023-02-13T02:21:35;97063.05;;;-0.12;84.20
6096;BME280;25081;42.698;23.298;2023-02-13T02:33:32;97061.99;;;0.09;84.10
6096;BME280;25081;42.698;23.298;2023-02-13T02:36:08;97055.34;;;-0.08;84.25
6096;BME280;25081;42.698;23.298;2023-02-13T02:38:41;97059.37;;;-0.27;84.84
6096;BME280;25081;42.698;23.298;2023-02-13T02:41:10;97068.59;;;-0.35;85.64
6096;BME280;25081;42.698;23.298;2023-02-13T02:43:50;97073.30;;;-0.40;86.23
6096;BME280;25081;42.698;23.298;2023-02-13T02:46:20;97083.36;;;-0.34;85.98
6096;BME280;25081;42.698;23.298;2023-02-13T02:48:48;97077.90;;;-0.31;85.90
6096;BME280;25081;42.698;23.298;2023-02-13T02:51:37;97087.66;;;-0.33;85.67
6096;BME280;25081;42.698;23.298;2023-02-13T02:54:07;97090.28;;;-0.33;85.47
6096;BME280;25081;42.698;23.298;2023-02-13T02:56:38;97092.86;;;-0.38;85.46
6096;BME280;25081;42.698;23.298;2023-02-13T02:59:07;97091.81;;;-0.36;85.45
6096;BME280;25081;42.698;23.298;2023-02-13T03:01:54;97095.84;;;-0.37;85.29
6096;BME280;25081;42.698;23.298;2023-02-13T03:04:41;97094.17;;;-0.38;85.34
6096;BME280;25081;42.698;23.298;2023-02-13T03:07:27;97097.45;;;-0.42;85.57
6096;BME280;25081;42.698;23.298;2023-02-13T03:09:57;97094.22;;;-0.45;85.85
6096;BME280;25081;42.698;23.298;2023-02-13T03:12:44;97090.88;;;-0.47;86.17
6096;BME280;25081;42.698;23.298;2023-02-13T03:15:31;97091.16;;;-0.39;86.44
6096;BME280;25081;42.698;23.298;2023-02-13T03:18:00;97092.86;;;-0.38;86.52
6096;BME280;25081;42.698;23.298;2023-02-13T03:20:47;97085.88;;;-0.32;86.35
6096;BME280;25081;42.698;23.298;2023-02-13T03:23:37;97087.91;;;-0.30;86.16
6096;BME280;25081;42.698;23.298;2023-02-13T03:26:29;97090.12;;;-0.24;85.83
6096;BME280;25081;42.698;23.298;2023-02-13T03:28:57;97088.33;;;-0.23;85.53
6096;BME280;25081;42.698;23.298;2023-02-13T03:31:45;97093.09;;;-0.23;85.48
6096;BME280;25081;42.698;23.298;2023-02-13T03:34:12;97106.31;;;-0.24;85.58
6096;BME280;25081;42.698;23.298;2023-02-13T03:36:45;97105.98;;;-0.20;85.81
6096;BME280;25081;42.698;23.298;2023-02-13T03:39:37;97092.62;;;-0.22;85.69
6096;BME280;25081;42.698;23.298;2023-02-13T03:42:05;97096.86;;;-0.14;85.44
6096;BME280;25081;42.698;23.298;2023-02-13T03:44:35;97094.36;;;-0.16;85.00
6096;BME280;25081;42.698;23.298;2023-02-13T03:47:05;97090.84;;;-0.22;85.02
6096;BME280;25081;42.698;23.298;2023-02-13T03:49:35;97088.27;;;-0.29;85.28
6096;BME280;25081;42.698;23.298;2023-02-13T03:52:23;97094.20;;;-0.33;85.66
6096;BME280;25081;42.698;23.298;2023-02-13T03:54:51;97092.39;;;-0.38;85.85
6096;BME280;25081;42.698;23.298;2023-02-13T03:57:38;97095.73;;;-0.36;86.01
6096;BME280;25081;42.698;23.298;2023-02-13T04:00:25;97089.50;;;-0.27;85.75
6096;BME280;25081;42.698;23.298;2023-02-13T04:02:57;97094.09;;;-0.31;85.57
6096;BME280;25081;42.698;23.298;2023-02-13T04:05:26;97089.19;;;-0.36;85.21
6096;BME280;25081;42.698;23.298;2023-02-13T04:07:55;97088.55;;;-0.39;85.08
6096;BME280;25081;42.698;23.298;2023-02-13T04:10:25;97101.02;;;-0.43;84.92
6096;BME280;25081;42.698;23.298;2023-02-13T04:12:56;97091.24;;;-0.46;84.83
6096;BME280;25081;42.698;23.298;2023-02-13T04:15:27;97096.78;;;-0.51;84.83
6096;BME280;25081;42.698;23.298;2023-02-13T04:17:58;97096.67;;;-0.49;84.90
6096;BME280;25081;42.698;23.298;2023-02-13T04:20:28;97093.36;;;-0.59;84.82
6096;BME280;25081;42.698;23.298;2023-02-13T04:23:02;97094.64;;;-0.64;84.98
6096;BME280;25081;42.698;23.298;2023-02-13T04:25:26;97095.69;;;-0.67;85.13
6096;BME280;25081;42.698;23.298;2023-02-13T04:27:56;97098.38;;;-0.68;85.57
6096;BME280;25081;42.698;23.298;2023-02-13T04:30:25;97103.00;;;-0.72;85.23
6096;BME280;25081;42.698;23.298;2023-02-13T04:32:56;97102.17;;;-0.72;85.03
6096;BME280;25081;42.698;23.298;2023-02-13T04:35:25;97100.23;;;-0.76;85.22
6096;BME280;25081;42.698;23.298;2023-02-13T04:37:54;97098.60;;;-0.71;85.29
6096;BME280;25081;42.698;23.298;2023-02-13T04:40:23;97102.38;;;-0.75;85.43
6096;BME280;25081;42.698;23.298;2023-02-13T04:42:52;97102.06;;;-0.71;85.58
6096;BME280;25081;42.698;23.298;2023-02-13T04:45:21;97091.22;;;-0.72;85.59
6096;BME280;25081;42.698;23.298;2023-02-13T04:47:54;97091.95;;;-0.70;85.61
6096;BME280;25081;42.698;23.298;2023-02-13T04:50:23;97097.25;;;-0.64;85.51
6096;BME280;25081;42.698;23.298;2023-02-13T04:52:54;97098.45;;;-0.63;85.30
6096;BME280;25081;42.698;23.298;2023-02-13T04:55:22;97098.23;;;-0.60;85.18
6096;BME280;25081;42.698;23.298;2023-02-13T04:57:53;97103.18;;;-0.55;85.06
6096;BME280;25081;42.698;23.298;2023-02-13T05:00:23;97110.45;;;-0.53;84.88
6096;BME280;25081;42.698;23.298;2023-02-13T05:02:51;97104.89;;;-0.48;84.66
6096;BME280;25081;42.698;23.298;2023-02-13T05:05:20;97112.49;;;-0.51;84.43
6096;BME280;25081;42.698;23.298;2023-02-13T05:07:48;97114.75;;;-0.52;84.49
6096;BME280;25081;42.698;23.298;2023-02-13T05:10:18;97120.05;;;-0.46;84.44
6096;BME280;25081;42.698;23.298;2023-02-13T05:12:47;97119.84;;;-0.43;84.03
6096;BME280;25081;42.698;23.298;2023-02-13T05:15:16;97117.58;;;-0.42;83.84
6096;BME280;25081;42.698;23.298;2023-02-13T05:17:45;97119.51;;;-0.39;83.71
6096;BME280;25081;42.698;23.298;2023-02-13T05:20:16;97116.16;;;-0.41;83.50
6096;BME280;25081;42.698;23.298;2023-02-13T05:22:48;97124.49;;;-0.41;83.38
6096;BME280;25081;42.698;23.298;2023-02-13T05:25:35;97127.84;;;-0.39;83.39
6096;BME280;25081;42.698;23.298;2023-02-13T05:28:03;97124.20;;;-0.37;83.02
6096;BME280;25081;42.698;23.298;2023-02-13T05:30:32;97133.73;;;-0.36;82.78
6096;BME280;25081;42.698;23.298;2023-02-13T05:33:01;97131.77;;;-0.39;82.72
6096;BME280;25081;42.698;23.298;2023-02-13T05:35:29;97129.91;;;-0.37;82.67
6096;BME280;25081;42.698;23.298;2023-02-13T05:37:58;97127.07;;;-0.34;82.81
6096;BME280;25081;42.698;23.298;2023-02-13T05:40:26;97133.51;;;-0.33;82.44
6096;BME280;25081;42.698;23.298;2023-02-13T05:42:55;97140.25;;;-0.48;82.84
6096;BME280;25081;42.698;23.298;2023-02-13T05:45:23;97142.00;;;-0.42;83.20
6096;BME280;25081;42.698;23.298;2023-02-13T05:47:51;97135.81;;;-0.41;83.39
6096;BME280;25081;42.698;23.298;2023-02-13T05:50:20;97141.22;;;-0.24;83.15
6096;BME280;25081;42.698;23.298;2023-02-13T05:52:49;97143.45;;;-0.12;82.54
6096;BME280;25081;42.698;23.298;2023-02-13T05:55:18;97147.83;;;-0.18;82.10
6096;BME280;25081;42.698;23.298;2023-02-13T05:57:46;97148.88;;;-0.08;82.00
6096;BME280;25081;42.698;23.298;2023-02-13T06:00:17;97146.39;;;-0.04;81.60
6096;BME280;25081;42.698;23.298;2023-02-13T06:02:45;97150.63;;;0.04;81.53
6096;BME280;25081;42.698;23.298;2023-02-13T06:05:14;97147.91;;;0.06;81.25
6096;BME280;25081;42.698;23.298;2023-02-13T06:07:42;97150.58;;;0.11;81.15
6096;BME280;25081;42.698;23.298;2023-02-13T06:10:12;97152.87;;;0.16;81.11
6096;BME280;25081;42.698;23.298;2023-02-13T06:12:40;97154.83;;;0.19;80.78
6096;BME280;25081;42.698;23.298;2023-02-13T06:15:10;97159.37;;;0.23;80.76
6096;BME280;25081;42.698;23.298;2023-02-13T06:17:39;97163.08;;;0.26;80.31
6096;BME280;25081;42.698;23.298;2023-02-13T06:20:09;97163.13;;;0.32;79.93
6096;BME280;25081;42.698;23.298;2023-02-13T06:22:38;97160.34;;;0.27;79.52
6096;BME280;25081;42.698;23.298;2023-02-13T06:25:08;97163.38;;;0.34;79.08
6096;BME280;25081;42.698;23.298;2023-02-13T06:27:36;97166.95;;;0.33;78.80
6096;BME280;25081;42.698;23.298;2023-02-13T06:30:07;97171.11;;;0.30;78.67
6096;BME280;25081;42.698;23.298;2023-02-13T06:32:35;97176.91;;;0.28;78.76
6096;BME280;25081;42.698;23.298;2023-02-13T06:35:05;97176.60;;;0.02;78.61
6096;BME280;25081;42.698;23.298;2023-02-13T06:37:33;97169.61;;;-0.31;80.21
6096;BME280;25081;42.698;23.298;2023-02-13T06:40:02;97169.94;;;-0.35;80.90
6096;BME280;25081;42.698;23.298;2023-02-13T06:42:30;97181.62;;;-0.34;81.09
6096;BME280;25081;42.698;23.298;2023-02-13T06:44:59;97178.69;;;-0.04;80.85
6096;BME280;25081;42.698;23.298;2023-02-13T06:47:28;97183.56;;;0.21;80.02
6096;BME280;25081;42.698;23.298;2023-02-13T06:49:57;97177.81;;;0.34;79.02
6096;BME280;25081;42.698;23.298;2023-02-13T06:52:26;97179.44;;;0.48;78.29
6096;BME280;25081;42.698;23.298;2023-02-13T06:54:55;97177.10;;;0.69;77.74
6096;BME280;25081;42.698;23.298;2023-02-13T06:57:23;97174.90;;;0.81;77.09
6096;BME280;25081;42.698;23.298;2023-02-13T06:59:52;97175.95;;;0.97;76.72
6096;BME280;25081;42.698;23.298;2023-02-13T07:02:20;97173.92;;;1.00;75.91
6096;BME280;25081;42.698;23.298;2023-02-13T07:04:49;97175.14;;;0.60;77.35
6096;BME280;25081;42.698;23.298;2023-02-13T07:07:18;97176.40;;;0.72;77.43
6096;BME280;25081;42.698;23.298;2023-02-13T07:09:46;97170.47;;;1.00;76.85
6096;BME280;25081;42.698;23.298;2023-02-13T07:12:15;97172.50;;;1.26;75.91
6096;BME280;25081;42.698;23.298;2023-02-13T07:14:43;97166.92;;;1.41;75.39
6096;BME280;25081;42.698;23.298;2023-02-13T07:17:12;97169.11;;;1.48;74.64
6096;BME280;25081;42.698;23.298;2023-02-13T07:19:41;97174.48;;;1.52;74.22
6096;BME280;25081;42.698;23.298;2023-02-13T07:22:10;97173.87;;;1.54;74.26
6096;BME280;25081;42.698;23.298;2023-02-13T07:24:39;97178.42;;;1.52;74.42
6096;BME280;25081;42.698;23.298;2023-02-13T07:27:08;97180.23;;;1.62;73.90
6096;BME280;25081;42.698;23.298;2023-02-13T07:29:37;97181.36;;;1.82;73.85
6096;BME280;25081;42.698;23.298;2023-02-13T07:32:06;97174.45;;;1.98;72.43
6096;BME280;25081;42.698;23.298;2023-02-13T07:34:34;97177.34;;;2.17;72.25
6096;BME280;25081;42.698;23.298;2023-02-13T07:37:03;97180.22;;;2.25;71.31
6096;BME280;25081;42.698;23.298;2023-02-13T07:39:32;97170.05;;;2.26;70.89
6096;BME280;25081;42.698;23.298;2023-02-13T07:42:01;97174.48;;;2.15;70.95
6096;BME280;25081;42.698;23.298;2023-02-13T07:44:30;97170.26;;;1.90;71.94
6096;BME280;25081;42.698;23.298;2023-02-13T07:46:59;97175.63;;;1.77;72.92
6096;BME280;25081;42.698;23.298;2023-02-13T07:49:28;97176.27;;;2.03;72.62
6096;BME280;25081;42.698;23.298;2023-02-13T07:51:57;97169.80;;;2.18;71.86
6096;BME280;25081;42.698;23.298;2023-02-13T07:54:26;97174.35;;;2.05;71.70
6096;BME280;25081;42.698;23.298;2023-02-13T07:56:55;97170.52;;;2.09;72.06
6096;BME280;25081;42.698;23.298;2023-02-13T07:59:24;97173.14;;;1.98;72.21
6096;BME280;25081;42.698;23.298;2023-02-13T08:01:52;97172.69;;;2.15;72.01
6096;BME280;25081;42.698;23.298;2023-02-13T08:04:21;97172.31;;;2.31;71.72
6096;BME280;25081;42.698;23.298;2023-02-13T08:06:49;97173.63;;;2.53;70.91
6096;BME280;25081;42.698;23.298;2023-02-13T08:09:19;97178.14;;;2.68;70.34
6096;BME280;25081;42.698;23.298;2023-02-13T08:12:07;97176.09;;;2.77;70.14
6096;BME280;25081;42.698;23.298;2023-02-13T08:14:36;96971.38;;;1.72;69.73
6096;BME280;25081;42.698;23.298;2023-02-13T08:17:05;97173.20;;;2.92;69.78
6096;BME280;25081;42.698;23.298;2023-02-13T08:19:33;97170.86;;;2.72;69.76
6096;BME280;25081;42.698;23.298;2023-02-13T08:22:02;97172.14;;;2.77;70.19
6096;BME280;25081;42.698;23.298;2023-02-13T08:24:31;97166.84;;;2.88;69.91
6096;BME280;25081;42.698;23.298;2023-02-13T08:27:00;97168.39;;;3.02;69.37
6096;BME280;25081;42.698;23.298;2023-02-13T08:29:28;97165.80;;;3.23;68.53
6096;BME280;25081;42.698;23.298;2023-02-13T08:31:57;97169.67;;;3.08;69.40
6096;BME280;25081;42.698;23.298;2023-02-13T08:34:26;97174.44;;;3.20;69.08
6096;BME280;25081;42.698;23.298;2023-02-13T08:36:55;97171.11;;;3.12;69.25
6096;BME280;25081;42.698;23.298;2023-02-13T08:39:24;97167.87;;;3.08;68.76
6096;BME280;25081;42.698;23.298;2023-02-13T08:41:53;97170.72;;;3.16;69.27
6096;BME280;25081;42.698;23.298;2023-02-13T08:44:22;97168.08;;;3.16;68.82
6096;BME280;25081;42.698;23.298;2023-02-13T08:46:50;97175.33;;;2.98;69.02
6096;BME280;25081;42.698;23.298;2023-02-13T08:49:19;97175.06;;;3.12;69.53
6096;BME280;25081;42.698;23.298;2023-02-13T08:51:48;97167.19;;;3.33;68.72
6096;BME280;25081;42.698;23.298;2023-02-13T08:54:17;97168.58;;;3.48;67.51
6096;BME280;25081;42.698;23.298;2023-02-13T08:56:46;97169.50;;;3.53;67.37
6096;BME280;25081;42.698;23.298;2023-02-13T08:59:14;97163.46;;;3.62;67.19
6096;BME280;25081;42.698;23.298;2023-02-13T09:01:43;97170.66;;;3.81;66.83
6096;BME280;25081;42.698;23.298;2023-02-13T09:04:12;97167.15;;;3.65;67.17
6096;BME280;25081;42.698;23.298;2023-02-13T09:06:41;97164.22;;;3.53;67.34
6096;BME280;25081;42.698;23.298;2023-02-13T09:09:10;97167.74;;;3.48;67.80
6096;BME280;25081;42.698;23.298;2023-02-13T09:11:38;97170.18;;;3.34;68.01
6096;BME280;25081;42.698;23.298;2023-02-13T09:14:07;97169.41;;;3.49;68.22
6096;BME280;25081;42.698;23.298;2023-02-13T09:16:36;97165.19;;;3.52;67.85
6096;BME280;25081;42.698;23.298;2023-02-13T09:19:05;97165.41;;;3.28;68.45
6096;BME280;25081;42.698;23.298;2023-02-13T09:21:34;97168.69;;;3.20;69.05
6096;BME280;25081;42.698;23.298;2023-02-13T09:24:06;97168.60;;;3.37;69.00
6096;BME280;25081;42.698;23.298;2023-02-13T09:26:35;97165.55;;;3.53;68.66
6096;BME280;25081;42.698;23.298;2023-02-13T09:29:04;97167.97;;;3.44;68.36
6096;BME280;25081;42.698;23.298;2023-02-13T09:31:33;97159.35;;;3.69;67.80
6096;BME280;25081;42.698;23.298;2023-02-13T09:34:02;97153.95;;;3.86;67.15
6096;BME280;25081;42.698;23.298;2023-02-13T09:36:30;97153.55;;;3.96;67.07
6096;BME280;25081;42.698;23.298;2023-02-13T09:38:59;97150.86;;;3.86;66.93
6096;BME280;25081;42.698;23.298;2023-02-13T09:41:28;97149.70;;;3.94;67.17
6096;BME280;25081;42.698;23.298;2023-02-13T09:43:57;97145.46;;;4.18;66.30
6096;BME280;25081;42.698;23.298;2023-02-13T09:46:28;97146.51;;;4.21;65.93
6096;BME280;25081;42.698;23.298;2023-02-13T09:48:56;97139.70;;;4.19;65.95
6096;BME280;25081;42.698;23.298;2023-02-13T09:51:24;97133.70;;;4.47;66.16
6096;BME280;25081;42.698;23.298;2023-02-13T09:53:54;97139.07;;;4.86;64.50
6096;BME280;25081;42.698;23.298;2023-02-13T09:56:26;97130.34;;;4.70;64.17
6096;BME280;25081;42.698;23.298;2023-02-13T09:58:54;97127.70;;;5.05;63.08
6096;BME280;25081;42.698;23.298;2023-02-13T10:01:25;97118.65;;;5.36;61.99
6096;BME280;25081;42.698;23.298;2023-02-13T10:03:57;97115.77;;;6.06;60.53
6096;BME280;25081;42.698;23.298;2023-02-13T10:06:25;97109.88;;;6.94;57.91
6096;BME280;25081;42.698;23.298;2023-02-13T10:09:04;97102.23;;;7.05;55.81
6096;BME280;25081;42.698;23.298;2023-02-13T10:11:44;97100.95;;;7.13;55.82
6096;BME280;25081;42.698;23.298;2023-02-13T10:14:15;97095.16;;;7.31;55.73
6096;BME280;25081;42.698;23.298;2023-02-13T10:16:44;97095.38;;;8.08;52.94
6096;BME280;25081;42.698;23.298;2023-02-13T10:19:17;97090.23;;;8.10;52.70
6096;BME280;25081;42.698;23.298;2023-02-13T10:21:45;97079.78;;;7.57;54.19
6096;BME280;25081;42.698;23.298;2023-02-13T10:24:16;97078.89;;;8.00;53.37
6096;BME280;25081;42.698;23.298;2023-02-13T10:26:43;97073.00;;;9.07;50.40
6096;BME280;25081;42.698;23.298;2023-02-13T10:29:14;97072.37;;;9.33;49.39
6096;BME280;25081;42.698;23.298;2023-02-13T10:32:02;97073.69;;;9.09;49.23
6096;BME280;25081;42.698;23.298;2023-02-13T10:34:33;97051.84;;;8.73;50.30
6096;BME280;25081;42.698;23.298;2023-02-13T10:36:59;97044.23;;;9.71;49.02
6096;BME280;25081;42.698;23.298;2023-02-13T10:39:29;97044.80;;;11.57;45.81
6096;BME280;25081;42.698;23.298;2023-02-13T10:41:59;97046.47;;;11.16;43.72
6096;BME280;25081;42.698;23.298;2023-02-13T10:44:39;97038.69;;;10.80;45.84
6096;BME280;25081;42.698;23.298;2023-02-13T10:47:12;97033.71;;;11.50;44.44
6096;BME280;25081;42.698;23.298;2023-02-13T10:49:50;97030.59;;;12.13;41.39
6096;BME280;25081;42.698;23.298;2023-02-13T10:52:22;97017.89;;;10.75;44.07
6096;BME280;25081;42.698;23.298;2023-02-13T10:54:59;97031.27;;;9.60;46.85
6096;BME280;25081;42.698;23.298;2023-02-13T10:57:27;97029.42;;;7.99;51.06
6096;BME280;25081;42.698;23.298;2023-02-13T11:00:09;97020.75;;;9.79;47.19
6096;BME280;25081;42.698;23.298;2023-02-13T11:02:36;97014.49;;;10.85;45.57
6096;BME280;25081;42.698;23.298;2023-02-13T11:05:14;97012.02;;;10.01;46.97
6096;BME280;25081;42.698;23.298;2023-02-13T11:07:42;97014.76;;;10.72;45.08
6096;BME280;25081;42.698;23.298;2023-02-13T11:10:16;97007.84;;;10.03;45.23
6096;BME280;25081;42.698;23.298;2023-02-13T11:12:44;97003.05;;;10.42;45.66
6096;BME280;25081;42.698;23.298;2023-02-13T11:15:22;96996.31;;;11.08;44.58
6096;BME280;25081;42.698;23.298;2023-02-13T11:17:50;96991.02;;;10.50;45.30
6096;BME280;25081;42.698;23.298;2023-02-13T11:20:29;96990.86;;;10.08;45.87
6096;BME280;25081;42.698;23.298;2023-02-13T11:23:08;96984.16;;;9.61;47.14
6096;BME280;25081;42.698;23.298;2023-02-13T11:25:27;96979.83;;;9.68;48.16
6096;BME280;25081;42.698;23.298;2023-02-13T11:28:06;96970.81;;;10.20;46.22
6096;BME280;25081;42.698;23.298;2023-02-13T11:30:33;96969.64;;;10.62;45.33
6096;BME280;25081;42.698;23.298;2023-02-13T11:33:02;96968.39;;;10.46;44.62
6096;BME280;25081;42.698;23.298;2023-02-13T11:35:30;96963.58;;;10.68;44.71
6096;BME280;25081;42.698;23.298;2023-02-13T11:38:22;96949.44;;;9.93;45.22
6096;BME280;25081;42.698;23.298;2023-02-13T11:40:51;96955.62;;;10.60;45.12
6096;BME280;25081;42.698;23.298;2023-02-13T11:43:25;96949.38;;;10.10;44.63
6096;BME280;25081;42.698;23.298;2023-02-13T11:45:59;96936.98;;;10.29;43.19
6096;BME280;25081;42.698;23.298;2023-02-13T11:48:28;96938.13;;;9.40;44.61
6096;BME280;25081;42.698;23.298;2023-02-13T11:53:22;96919.99;;;9.39;45.28
6096;BME280;25081;42.698;23.298;2023-02-13T11:56:02;96917.02;;;9.30;45.97
6096;BME280;25081;42.698;23.298;2023-02-13T11:58:30;96914.87;;;8.97;45.89
6096;BME280;25081;42.698;23.298;2023-02-13T12:01:20;96914.05;;;8.40;46.87
6096;BME280;25081;42.698;23.298;2023-02-13T12:03:40;96909.95;;;8.07;48.22
6096;BME280;25081;42.698;23.298;2023-02-13T12:06:13;96904.00;;;7.71;48.51
6096;BME280;25081;42.698;23.298;2023-02-13T12:08:42;96913.07;;;7.98;48.13
6096;BME280;25081;42.698;23.298;2023-02-13T12:11:16;96904.04;;;7.79;48.29
6096;BME280;25081;42.698;23.298;2023-02-13T12:13:43;96901.58;;;7.82;48.48
6096;BME280;25081;42.698;23.298;2023-02-13T12:16:13;96902.08;;;7.85;47.53
6096;BME280;25081;42.698;23.298;2023-02-13T12:18:42;96902.05;;;7.73;48.07
6096;BME280;25081;42.698;23.298;2023-02-13T12:21:23;96897.20;;;7.64;47.71
6096;BME280;25081;42.698;23.298;2023-02-13T12:23:41;96893.38;;;7.33;48.60
6096;BME280;25081;42.698;23.298;2023-02-13T12:26:18;96887.44;;;7.35;47.50
6096;BME280;25081;42.698;23.298;2023-02-13T12:28:58;96888.22;;;7.27;48.32
6096;BME280;25081;42.698;23.298;2023-02-13T12:31:50;96888.66;;;7.49;47.44
6096;BME280;25081;42.698;23.298;2023-02-13T12:34:44;96890.39;;;7.32;47.55
6096;BME280;25081;42.698;23.298;2023-02-13T12:37:21;96879.31;;;7.36;47.41
6096;BME280;25081;42.698;23.298;2023-02-13T12:39:52;96884.58;;;7.28;47.88
6096;BME280;25081;42.698;23.298;2023-02-13T12:42:27;96887.55;;;7.25;48.28
6096;BME280;25081;42.698;23.298;2023-02-13T12:45:07;96883.47;;;7.39;47.41
6096;BME280;25081;42.698;23.298;2023-02-13T12:47:36;96876.17;;;7.37;47.44
6096;BME280;25081;42.698;23.298;2023-02-13T12:50:33;96877.12;;;7.28;47.29
6096;BME280;25081;42.698;23.298;2023-02-13T12:53:17;96874.53;;;7.14;47.54
6096;BME280;25081;42.698;23.298;2023-02-13T12:55:59;96864.91;;;7.13;47.80
6096;BME280;25081;42.698;23.298;2023-02-13T12:58:40;96854.31;;;7.13;47.48
6096;BME280;25081;42.698;23.298;2023-02-13T13:01:11;96854.02;;;7.20;47.29
6096;BME280;25081;42.698;23.298;2023-02-13T13:03:46;96853.63;;;7.07;47.30
6096;BME280;25081;42.698;23.298;2023-02-13T13:06:40;96851.93;;;7.02;47.96
6096;BME280;25081;42.698;23.298;2023-02-13T13:09:44;96848.94;;;6.97;48.25
6096;BME280;25081;42.698;23.298;2023-02-13T13:12:26;96844.86;;;6.84;48.78
6096;BME280;25081;42.698;23.298;2023-02-13T13:14:57;96841.48;;;6.74;49.44
6096;BME280;25081;42.698;23.298;2023-02-13T13:17:30;96842.25;;;6.88;49.07
6096;BME280;25081;42.698;23.298;2023-02-13T13:19:59;96839.11;;;6.89;48.68
6096;BME280;25081;42.698;23.298;2023-02-13T13:22:28;96840.04;;;6.80;48.82
6096;BME280;25081;42.698;23.298;2023-02-13T13:24:59;96831.82;;;6.91;48.93
6096;BME280;25081;42.698;23.298;2023-02-13T13:27:28;96831.71;;;7.01;48.69
6096;BME280;25081;42.698;23.298;2023-02-13T13:29:57;96824.80;;;7.12;48.20
6096;BME280;25081;42.698;23.298;2023-02-13T13:32:26;96830.89;;;7.04;48.05
6096;BME280;25081;42.698;23.298;2023-02-13T13:34:54;96831.05;;;6.99;48.09
6096;BME280;25081;42.698;23.298;2023-02-13T13:37:27;96831.16;;;6.89;48.57
6096;BME280;25081;42.698;23.298;2023-02-13T13:39:56;96820.00;;;6.81;48.98